Terminal Aerodrome Forecast
Issued by NWS

Home | Current Version | Previous Version | Graphics & Text | Print | Product List | Glossary On
Versions: 1 2 3 4 5 6 7 8 9 10 11 12 13 14 15 16 17 18 19
656
FTUS43 KMPX 281120
TAFRWF
TAF
KRWF 281120Z 2812/2912 06011G18KT 4SM -RA BR BKN008 OVC015
     FM281600 05011KT 6SM -RA BR SCT008 OVC015
     FM282100 05009KT P6SM BKN015 OVC040
     FM290400 03005KT P6SM SCT025 OVC040=

USA.gov is the U.S. government's official web portal to all federal, state and local government web resources and services.